sensor_id;sensor_type;location;lat;lon;timestamp;pressure;altitude;pressure_sealevel;temperature;humidity
16016;BME280;8112;53.592;10.184;2024-01-30T00:03:53;102447.31;;;2.88;100.00
16016;BME280;8112;53.592;10.184;2024-01-30T00:08:56;102443.84;;;2.89;100.00
16016;BME280;8112;53.592;10.184;2024-01-30T00:13:57;102449.94;;;2.90;100.00
16016;BME280;8112;53.592;10.184;2024-01-30T00:18:59;102450.81;;;2.92;100.00
16016;BME280;8112;53.592;10.184;2024-01-30T00:24:04;102451.69;;;2.95;100.00
16016;BME280;8112;53.592;10.184;2024-01-30T00:29:06;102452.53;;;2.91;100.00
16016;BME280;8112;53.592;10.184;2024-01-30T00:34:07;102445.59;;;2.87;100.00
16016;BME280;8112;53.592;10.184;2024-01-30T00:39:10;102437.78;;;2.85;100.00
16016;BME280;8112;53.592;10.184;2024-01-30T00:44:12;102434.28;;;2.80;100.00
16016;BME280;8112;53.592;10.184;2024-01-30T00:49:14;102428.22;;;2.80;100.00
16016;BME280;8112;53.592;10.184;2024-01-30T00:54:17;102426.50;;;2.82;100.00
16016;BME280;8112;53.592;10.184;2024-01-30T00:59:19;102414.34;;;2.78;100.00
16016;BME280;8112;53.592;10.184;2024-01-30T01:04:20;102428.22;;;2.83;100.00
16016;BME280;8112;53.592;10.184;2024-01-30T01:09:24;102429.09;;;2.82;100.00
16016;BME280;8112;53.592;10.184;2024-01-30T01:14:26;102433.44;;;2.86;100.00
16016;BME280;8112;53.592;10.184;2024-01-30T01:19:27;102443.84;;;2.92;100.00
16016;BME280;8112;53.592;10.184;2024-01-30T01:24:31;102445.59;;;2.92;100.00
16016;BME280;8112;53.592;10.184;2024-01-30T01:29:32;102447.31;;;2.88;100.00
16016;BME280;8112;53.592;10.184;2024-01-30T01:34:34;102446.44;;;2.89;100.00
16016;BME280;8112;53.592;10.184;2024-01-30T01:39:37;102439.53;;;2.94;100.00
16016;BME280;8112;53.592;10.184;2024-01-30T01:44:39;102436.91;;;2.91;100.00
16016;BME280;8112;53.592;10.184;2024-01-30T01:49:40;102424.78;;;2.89;100.00
16016;BME280;8112;53.592;10.184;2024-01-30T01:54:48;102426.50;;;2.90;100.00
16016;BME280;8112;53.592;10.184;2024-01-30T01:59:49;102423.03;;;2.95;100.00
16016;BME280;8112;53.592;10.184;2024-01-30T02:04:51;102416.06;;;2.96;100.00
16016;BME280;8112;53.592;10.184;2024-01-30T02:09:54;102405.66;;;3.04;100.00
16016;BME280;8112;53.592;10.184;2024-01-30T02:14:56;102400.44;;;3.10;100.00
16016;BME280;8112;53.592;10.184;2024-01-30T02:19:58;102385.69;;;3.12;100.00
16016;BME280;8112;53.592;10.184;2024-01-30T02:25:01;102381.34;;;3.12;100.00
16016;BME280;8112;53.592;10.184;2024-01-30T02:30:04;102372.66;;;3.10;100.00
16016;BME280;8112;53.592;10.184;2024-01-30T02:35:06;102370.91;;;3.11;100.00
16016;BME280;8112;53.592;10.184;2024-01-30T02:40:10;102373.53;;;3.14;100.00
16016;BME280;8112;53.592;10.184;2024-01-30T02:45:12;102375.25;;;3.15;100.00
16016;BME280;8112;53.592;10.184;2024-01-30T02:50:14;102373.53;;;3.09;100.00
16016;BME280;8112;53.592;10.184;2024-01-30T02:55:18;102377.88;;;3.07;100.00
16016;BME280;8112;53.592;10.184;2024-01-30T03:00:20;102376.13;;;3.02;100.00
16016;BME280;8112;53.592;10.184;2024-01-30T03:05:22;102364.00;;;3.01;100.00
16016;BME280;8112;53.592;10.184;2024-01-30T03:10:25;102355.31;;;2.95;100.00
16016;BME280;8112;53.592;10.184;2024-01-30T03:15:26;102355.31;;;2.94;100.00
16016;BME280;8112;53.592;10.184;2024-01-30T03:20:28;102352.72;;;2.94;100.00
16016;BME280;8112;53.592;10.184;2024-01-30T03:25:31;102358.78;;;2.85;100.00
16016;BME280;8112;53.592;10.184;2024-01-30T03:30:34;102351.84;;;2.78;100.00
16016;BME280;8112;53.592;10.184;2024-01-30T03:35:36;102346.66;;;2.65;100.00
16016;BME280;8112;53.592;10.184;2024-01-30T03:40:39;102353.59;;;2.63;100.00
16016;BME280;8112;53.592;10.184;2024-01-30T03:45:41;102346.66;;;2.59;100.00
16016;BME280;8112;53.592;10.184;2024-01-30T03:50:42;102341.41;;;2.53;100.00
16016;BME280;8112;53.592;10.184;2024-01-30T03:55:45;102344.03;;;2.48;100.00
16016;BME280;8112;53.592;10.184;2024-01-30T04:00:47;102340.56;;;2.41;100.00
16016;BME280;8112;53.592;10.184;2024-01-30T04:05:49;102331.00;;;2.42;100.00
16016;BME280;8112;53.592;10.184;2024-01-30T04:10:52;102327.53;;;2.43;100.00
16016;BME280;8112;53.592;10.184;2024-01-30T04:15:53;102319.72;;;2.40;100.00
16016;BME280;8112;53.592;10.184;2024-01-30T04:20:56;102324.09;;;2.46;100.00
16016;BME280;8112;53.592;10.184;2024-01-30T04:25:59;102323.19;;;2.45;100.00
16016;BME280;8112;53.592;10.184;2024-01-30T04:31:01;102336.22;;;2.44;100.00
16016;BME280;8112;53.592;10.184;2024-01-30T04:36:03;102337.97;;;2.41;100.00
16016;BME280;8112;53.592;10.184;2024-01-30T04:41:09;102344.03;;;2.42;100.00
16016;BME280;8112;53.592;10.184;2024-01-30T04:46:11;102351.84;;;2.44;100.00
16016;BME280;8112;53.592;10.184;2024-01-30T04:51:13;102356.16;;;2.40;100.00
16016;BME280;8112;53.592;10.184;2024-01-30T04:56:16;102353.56;;;2.38;100.00
16016;BME280;8112;53.592;10.184;2024-01-30T05:01:17;102349.22;;;2.30;100.00
16016;BME280;8112;53.592;10.184;2024-01-30T05:06:26;102350.06;;;2.24;100.00
16016;BME280;8112;53.592;10.184;2024-01-30T05:11:29;102340.53;;;2.23;100.00
16016;BME280;8112;53.592;10.184;2024-01-30T05:16:31;102334.44;;;2.18;100.00
16016;BME280;8112;53.592;10.184;2024-01-30T05:21:33;102335.34;;;2.23;100.00
16016;BME280;8112;53.592;10.184;2024-01-30T05:26:36;102336.22;;;2.30;100.00
16016;BME280;8112;53.592;10.184;2024-01-30T05:31:38;102337.97;;;2.38;100.00
16016;BME280;8112;53.592;10.184;2024-01-30T05:36:40;102342.31;;;2.50;100.00
16016;BME280;8112;53.592;10.184;2024-01-30T05:41:43;102338.84;;;2.58;100.00
16016;BME280;8112;53.592;10.184;2024-01-30T05:46:45;102334.50;;;2.58;100.00
16016;BME280;8112;53.592;10.184;2024-01-30T05:51:46;102331.00;;;2.61;100.00
16016;BME280;8112;53.592;10.184;2024-01-30T05:56:50;102324.97;;;2.63;100.00
16016;BME280;8112;53.592;10.184;2024-01-30T06:01:52;102320.63;;;2.62;100.00
16016;BME280;8112;53.592;10.184;2024-01-30T06:06:54;102319.75;;;2.66;100.00
16016;BME280;8112;53.592;10.184;2024-01-30T06:11:57;102313.66;;;2.64;100.00
16016;BME280;8112;53.592;10.184;2024-01-30T06:16:59;102304.97;;;2.56;100.00
16016;BME280;8112;53.592;10.184;2024-01-30T06:22:00;102304.97;;;2.53;100.00
16016;BME280;8112;53.592;10.184;2024-01-30T06:27:06;102302.38;;;2.58;100.00
16016;BME280;8112;53.592;10.184;2024-01-30T06:32:07;102288.53;;;2.60;100.00
16016;BME280;8112;53.592;10.184;2024-01-30T06:37:09;102281.56;;;2.73;100.00
16016;BME280;8112;53.592;10.184;2024-01-30T06:42:12;102278.06;;;2.85;100.00
16016;BME280;8112;53.592;10.184;2024-01-30T06:47:14;102294.53;;;3.03;100.00
16016;BME280;8112;53.592;10.184;2024-01-30T06:52:16;102295.34;;;3.20;100.00
16016;BME280;8112;53.592;10.184;2024-01-30T06:57:19;102293.59;;;3.27;100.00
16016;BME280;8112;53.592;10.184;2024-01-30T07:02:21;102290.09;;;3.36;100.00
16016;BME280;8112;53.592;10.184;2024-01-30T07:07:22;102290.06;;;3.37;100.00
16016;BME280;8112;53.592;10.184;2024-01-30T07:12:25;102300.50;;;3.39;100.00
16016;BME280;8112;53.592;10.184;2024-01-30T07:17:27;102284.03;;;3.27;100.00
16016;BME280;8112;53.592;10.184;2024-01-30T07:22:29;102284.09;;;3.15;100.00
16016;BME280;8112;53.592;10.184;2024-01-30T07:27:32;102279.75;;;3.08;100.00
16016;BME280;8112;53.592;10.184;2024-01-30T07:32:34;102284.09;;;3.12;100.00
16016;BME280;8112;53.592;10.184;2024-01-30T07:37:36;102289.22;;;3.27;100.00
16016;BME280;8112;53.592;10.184;2024-01-30T07:42:39;102285.75;;;3.38;100.00
16016;BME280;8112;53.592;10.184;2024-01-30T07:47:41;102289.19;;;3.49;100.00
16016;BME280;8112;53.592;10.184;2024-01-30T07:52:43;102293.41;;;3.72;100.00
16016;BME280;8112;53.592;10.184;2024-01-30T07:57:46;102289.88;;;3.81;100.00
16016;BME280;8112;53.592;10.184;2024-01-30T08:02:48;102308.03;;;3.98;100.00
16016;BME280;8112;53.592;10.184;2024-01-30T08:07:50;102294.03;;;4.11;100.00
16016;BME280;8112;53.592;10.184;2024-01-30T08:12:53;102305.22;;;4.31;100.00
16016;BME280;8112;53.592;10.184;2024-01-30T08:17:54;102295.63;;;4.31;100.00
16016;BME280;8112;53.592;10.184;2024-01-30T08:22:58;102287.81;;;4.31;100.00
16016;BME280;8112;53.592;10.184;2024-01-30T08:28:02;102292.06;;;4.43;100.00
16016;BME280;8112;53.592;10.184;2024-01-30T08:33:04;102285.06;;;4.51;100.00
16016;BME280;8112;53.592;10.184;2024-01-30T08:38:06;102279.75;;;4.59;100.00
16016;BME280;8112;53.592;10.184;2024-01-30T08:43:09;102283.94;;;4.79;100.00
16016;BME280;8112;53.592;10.184;2024-01-30T08:48:11;102274.13;;;4.99;100.00
16016;BME280;8112;53.592;10.184;2024-01-30T08:53:12;102275.81;;;5.04;100.00
16016;BME280;8112;53.592;10.184;2024-01-30T08:58:16;102257.44;;;5.11;100.00
16016;BME280;8112;53.592;10.184;2024-01-30T09:03:18;102256.56;;;5.14;100.00
16016;BME280;8112;53.592;10.184;2024-01-30T09:08:20;102248.31;;;5.45;100.00
16016;BME280;8112;53.592;10.184;2024-01-30T09:13:23;102239.28;;;5.69;100.00
16016;BME280;8112;53.592;10.184;2024-01-30T09:18:25;102227.69;;;5.88;100.00
16016;BME280;8112;53.592;10.184;2024-01-30T09:23:27;102227.63;;;5.91;100.00
16016;BME280;8112;53.592;10.184;2024-01-30T09:28:30;102238.69;;;6.11;100.00
16016;BME280;8112;53.592;10.184;2024-01-30T09:33:32;102240.09;;;6.33;100.00
16016;BME280;8112;53.592;10.184;2024-01-30T09:38:33;102246.03;;;6.43;100.00
16016;BME280;8112;53.592;10.184;2024-01-30T09:43:38;102260.41;;;6.70;100.00
16016;BME280;8112;53.592;10.184;2024-01-30T09:48:41;102259.66;;;6.63;100.00
16016;BME280;8112;53.592;10.184;2024-01-30T09:53:43;102256.97;;;6.66;100.00
16016;BME280;8112;53.592;10.184;2024-01-30T09:58:46;102247.16;;;6.78;100.00
16016;BME280;8112;53.592;10.184;2024-01-30T10:03:50;102247.06;;;6.82;100.00
16016;BME280;8112;53.592;10.184;2024-01-30T10:08:52;102232.09;;;6.89;100.00
16016;BME280;8112;53.592;10.184;2024-01-30T10:13:55;102228.56;;;6.90;100.00
16016;BME280;8112;53.592;10.184;2024-01-30T10:18:57;102208.13;;;7.08;100.00
16016;BME280;8112;53.592;10.184;2024-01-30T10:23:59;102207.66;;;7.30;100.00
16016;BME280;8112;53.592;10.184;2024-01-30T10:29:02;102208.94;;;7.52;100.00
16016;BME280;8112;53.592;10.184;2024-01-30T10:34:03;102214.03;;;7.59;100.00
16016;BME280;8112;53.592;10.184;2024-01-30T10:39:06;102200.16;;;7.53;100.00
16016;BME280;8112;53.592;10.184;2024-01-30T10:44:10;102186.00;;;7.61;100.00
16016;BME280;8112;53.592;10.184;2024-01-30T10:49:13;102179.34;;;7.83;100.00
16016;BME280;8112;53.592;10.184;2024-01-30T10:54:15;102182.53;;;7.96;100.00
16016;BME280;8112;53.592;10.184;2024-01-30T10:59:22;102185.03;;;8.01;100.00
16016;BME280;8112;53.592;10.184;2024-01-30T11:04:24;102188.00;;;8.22;100.00
16016;BME280;8112;53.592;10.184;2024-01-30T11:09:29;102168.81;;;8.20;100.00
16016;BME280;8112;53.592;10.184;2024-01-30T11:14:32;102171.25;;;8.27;100.00
16016;BME280;8112;53.592;10.184;2024-01-30T11:19:35;102169.81;;;8.49;100.00
16016;BME280;8112;53.592;10.184;2024-01-30T11:24:39;102170.56;;;8.54;100.00
16016;BME280;8112;53.592;10.184;2024-01-30T11:29:42;102172.41;;;8.50;100.00
16016;BME280;8112;53.592;10.184;2024-01-30T11:34:44;102156.63;;;8.52;100.00
16016;BME280;8112;53.592;10.184;2024-01-30T11:39:48;102159.84;;;8.62;100.00
16016;BME280;8112;53.592;10.184;2024-01-30T11:44:51;102161.78;;;8.55;100.00
16016;BME280;8112;53.592;10.184;2024-01-30T11:49:52;102159.91;;;8.60;100.00
16016;BME280;8112;53.592;10.184;2024-01-30T11:54:54;102160.16;;;8.51;100.00
16016;BME280;8112;53.592;10.184;2024-01-30T11:59:57;102153.16;;;8.51;100.00
16016;BME280;8112;53.592;10.184;2024-01-30T12:05:03;102150.94;;;8.67;100.00
16016;BME280;8112;53.592;10.184;2024-01-30T12:10:05;102150.66;;;8.77;100.00
16016;BME280;8112;53.592;10.184;2024-01-30T12:15:10;102137.59;;;8.75;100.00
16016;BME280;8112;53.592;10.184;2024-01-30T12:20:15;102141.63;;;8.55;100.00
16016;BME280;8112;53.592;10.184;2024-01-30T12:25:18;102137.09;;;8.62;100.00
16016;BME280;8112;53.592;10.184;2024-01-30T12:30:24;102132.47;;;8.69;100.00
16016;BME280;8112;53.592;10.184;2024-01-30T12:35:26;102135.47;;;8.87;100.00
16016;BME280;8112;53.592;10.184;2024-01-30T12:40:28;102129.00;;;8.68;100.00
16016;BME280;8112;53.592;10.184;2024-01-30T12:45:31;102124.66;;;8.67;100.00
16016;BME280;8112;53.592;10.184;2024-01-30T12:50:33;102124.31;;;8.80;100.00
16016;BME280;8112;53.592;10.184;2024-01-30T12:55:34;102126.09;;;9.08;100.00
16016;BME280;8112;53.592;10.184;2024-01-30T13:00:37;102125.84;;;9.17;100.00
16016;BME280;8112;53.592;10.184;2024-01-30T13:05:39;102134.88;;;9.08;100.00
16016;BME280;8112;53.592;10.184;2024-01-30T13:10:41;102137.16;;;9.19;100.00
16016;BME280;8112;53.592;10.184;2024-01-30T13:15:44;102134.47;;;9.21;100.00
16016;BME280;8112;53.592;10.184;2024-01-30T13:20:45;102132.97;;;9.12;100.00
16016;BME280;8112;53.592;10.184;2024-01-30T13:25:47;102141.25;;;9.00;100.00
16016;BME280;8112;53.592;10.184;2024-01-30T13:30:50;102130.00;;;8.94;100.00
16016;BME280;8112;53.592;10.184;2024-01-30T13:35:52;102126.25;;;9.03;100.00
16016;BME280;8112;53.592;10.184;2024-01-30T13:40:54;102128.69;;;9.09;100.00
16016;BME280;8112;53.592;10.184;2024-01-30T13:45:57;102130.69;;;9.01;100.00
16016;BME280;8112;53.592;10.184;2024-01-30T13:50:59;102127.97;;;9.04;100.00
16016;BME280;8112;53.592;10.184;2024-01-30T13:56:01;102132.97;;;9.12;100.00
16016;BME280;8112;53.592;10.184;2024-01-30T14:01:04;102122.09;;;9.24;100.00
16016;BME280;8112;53.592;10.184;2024-01-30T14:06:06;102118.69;;;9.21;100.00
16016;BME280;8112;53.592;10.184;2024-01-30T14:11:07;102121.91;;;9.31;100.00
16016;BME280;8112;53.592;10.184;2024-01-30T14:16:11;102117.63;;;9.28;100.00
16016;BME280;8112;53.592;10.184;2024-01-30T14:21:13;102116.63;;;9.31;100.00
16016;BME280;8112;53.592;10.184;2024-01-30T14:26:14;102114.06;;;9.29;100.00
16016;BME280;8112;53.592;10.184;2024-01-30T14:31:17;102103.81;;;9.20;100.00
16016;BME280;8112;53.592;10.184;2024-01-30T14:36:21;102106.56;;;9.17;100.00
16016;BME280;8112;53.592;10.184;2024-01-30T14:41:23;102099.44;;;9.20;100.00
16016;BME280;8112;53.592;10.184;2024-01-30T14:46:26;102089.19;;;9.11;100.00
16016;BME280;8112;53.592;10.184;2024-01-30T14:51:28;102107.50;;;9.14;100.00
16016;BME280;8112;53.592;10.184;2024-01-30T14:56:30;102097.75;;;9.18;100.00
16016;BME280;8112;53.592;10.184;2024-01-30T15:01:34;102111.00;;;9.15;100.00
16016;BME280;8112;53.592;10.184;2024-01-30T15:06:36;102111.34;;;9.04;100.00
16016;BME280;8112;53.592;10.184;2024-01-30T15:11:37;102107.25;;;8.93;100.00
16016;BME280;8112;53.592;10.184;2024-01-30T15:16:40;102113.19;;;9.00;100.00
16016;BME280;8112;53.592;10.184;2024-01-30T15:21:42;102108.00;;;8.98;100.00
16016;BME280;8112;53.592;10.184;2024-01-30T15:26:44;102113.91;;;9.05;100.00
16016;BME280;8112;53.592;10.184;2024-01-30T15:31:47;102114.56;;;9.12;100.00
16016;BME280;8112;53.592;10.184;2024-01-30T15:36:49;102126.88;;;9.11;100.00
16016;BME280;8112;53.592;10.184;2024-01-30T15:41:51;102124.19;;;9.13;100.00
16016;BME280;8112;53.592;10.184;2024-01-30T15:46:54;102133.09;;;9.09;100.00
16016;BME280;8112;53.592;10.184;2024-01-30T15:51:56;102131.38;;;9.08;100.00
16016;BME280;8112;53.592;10.184;2024-01-30T15:56:58;102128.16;;;8.98;100.00
16016;BME280;8112;53.592;10.184;2024-01-30T16:02:01;102128.75;;;9.08;100.00
16016;BME280;8112;53.592;10.184;2024-01-30T16:07:03;102135.56;;;9.15;100.00
16016;BME280;8112;53.592;10.184;2024-01-30T16:12:06;102139.97;;;9.13;100.00
16016;BME280;8112;53.592;10.184;2024-01-30T16:17:09;102133.72;;;9.17;100.00
16016;BME280;8112;53.592;10.184;2024-01-30T16:22:10;102140.16;;;9.07;100.00
16016;BME280;8112;53.592;10.184;2024-01-30T16:27:12;102144.59;;;9.06;100.00
16016;BME280;8112;53.592;10.184;2024-01-30T16:32:15;102153.81;;;8.90;100.00
16016;BME280;8112;53.592;10.184;2024-01-30T16:37:17;102159.91;;;8.92;100.00
16016;BME280;8112;53.592;10.184;2024-01-30T16:42:18;102162.66;;;8.87;100.00
16016;BME280;8112;53.592;10.184;2024-01-30T16:47:22;102161.50;;;8.97;100.00
16016;BME280;8112;53.592;10.184;2024-01-30T16:52:23;102156.34;;;8.93;100.00
16016;BME280;8112;53.592;10.184;2024-01-30T16:57:25;102154.56;;;8.93;100.00
16016;BME280;8112;53.592;10.184;2024-01-30T17:02:28;102159.72;;;8.98;100.00
16016;BME280;8112;53.592;10.184;2024-01-30T17:07:30;102159.66;;;9.00;100.00
16016;BME280;8112;53.592;10.184;2024-01-30T17:12:35;102163.13;;;9.02;100.00
16016;BME280;8112;53.592;10.184;2024-01-30T17:17:38;102169.19;;;9.04;100.00
16016;BME280;8112;53.592;10.184;2024-01-30T17:22:40;102163.00;;;9.06;100.00
16016;BME280;8112;53.592;10.184;2024-01-30T17:27:41;102167.38;;;9.06;100.00
16016;BME280;8112;53.592;10.184;2024-01-30T17:32:46;102177.47;;;9.20;100.00
16016;BME280;8112;53.592;10.184;2024-01-30T17:37:47;102173.34;;;9.11;100.00
16016;BME280;8112;53.592;10.184;2024-01-30T17:42:49;102173.44;;;9.08;100.00
16016;BME280;8112;53.592;10.184;2024-01-30T17:47:52;102162.09;;;9.07;100.00
16016;BME280;8112;53.592;10.184;2024-01-30T17:52:54;102175.81;;;9.17;100.00
16016;BME280;8112;53.592;10.184;2024-01-30T17:57:56;102178.22;;;9.25;100.00
16016;BME280;8112;53.592;10.184;2024-01-30T18:03:00;102177.31;;;9.26;100.00
16016;BME280;8112;53.592;10.184;2024-01-30T18:08:04;102175.00;;;9.15;100.00
16016;BME280;8112;53.592;10.184;2024-01-30T18:13:07;102188.56;;;9.30;100.00
16016;BME280;8112;53.592;10.184;2024-01-30T18:18:10;102196.81;;;9.47;100.00
16016;BME280;8112;53.592;10.184;2024-01-30T18:23:13;102192.69;;;9.38;100.00
16016;BME280;8112;53.592;10.184;2024-01-30T18:28:15;102198.03;;;9.37;100.00
16016;BME280;8112;53.592;10.184;2024-01-30T18:33:18;102194.06;;;9.52;100.00
16016;BME280;8112;53.592;10.184;2024-01-30T18:38:20;102207.19;;;9.53;100.00
16016;BME280;8112;53.592;10.184;2024-01-30T18:43:22;102191.75;;;9.41;100.00
16016;BME280;8112;53.592;10.184;2024-01-30T18:48:25;102191.19;;;9.31;100.00
16016;BME280;8112;53.592;10.184;2024-01-30T18:53:26;102198.94;;;9.36;100.00
16016;BME280;8112;53.592;10.184;2024-01-30T18:58:28;102200.00;;;9.29;100.00
16016;BME280;8112;53.592;10.184;2024-01-30T19:03:31;102188.97;;;9.17;100.00
16016;BME280;8112;53.592;10.184;2024-01-30T19:08:33;102189.44;;;9.30;100.00
16016;BME280;8112;53.592;10.184;2024-01-30T19:13:34;102200.06;;;9.27;100.00
16016;BME280;8112;53.592;10.184;2024-01-30T19:18:38;102197.78;;;9.15;100.00
16016;BME280;8112;53.592;10.184;2024-01-30T19:23:39;102203.25;;;9.08;100.00
16016;BME280;8112;53.592;10.184;2024-01-30T19:28:41;102203.31;;;9.05;100.00
16016;BME280;8112;53.592;10.184;2024-01-30T19:33:45;102201.16;;;8.90;100.00
16016;BME280;8112;53.592;10.184;2024-01-30T19:38:46;102205.56;;;9.19;100.00
16016;BME280;8112;53.592;10.184;2024-01-30T19:43:48;102211.16;;;9.07;100.00
16016;BME280;8112;53.592;10.184;2024-01-30T19:48:51;102213.31;;;8.92;100.00
16016;BME280;8112;53.592;10.184;2024-01-30T19:53:53;102207.22;;;8.92;100.00
16016;BME280;8112;53.592;10.184;2024-01-30T19:58:55;102220.50;;;8.87;100.00
16016;BME280;8112;53.592;10.184;2024-01-30T20:03:58;102241.69;;;8.81;100.00
16016;BME280;8112;53.592;10.184;2024-01-30T20:08:59;102224.59;;;8.97;100.00
16016;BME280;8112;53.592;10.184;2024-01-30T20:14:01;102243.25;;;8.88;100.00
16016;BME280;8112;53.592;10.184;2024-01-30T20:19:04;102239.88;;;8.83;100.00
16016;BME280;8112;53.592;10.184;2024-01-30T20:24:06;102241.03;;;8.73;100.00
16016;BME280;8112;53.592;10.184;2024-01-30T20:29:09;102243.84;;;8.66;100.00
16016;BME280;8112;53.592;10.184;2024-01-30T20:34:12;102259.81;;;8.59;100.00
16016;BME280;8112;53.592;10.184;2024-01-30T20:39:14;102265.41;;;8.78;100.00
16016;BME280;8112;53.592;10.184;2024-01-30T20:44:15;102265.16;;;8.55;100.00
16016;BME280;8112;53.592;10.184;2024-01-30T20:49:20;102268.75;;;8.51;100.00
16016;BME280;8112;53.592;10.184;2024-01-30T20:54:22;102260.81;;;8.53;100.00
16016;BME280;8112;53.592;10.184;2024-01-30T20:59:24;102264.78;;;8.33;100.00
16016;BME280;8112;53.592;10.184;2024-01-30T21:04:27;102280.78;;;8.24;100.00
16016;BME280;8112;53.592;10.184;2024-01-30T21:09:28;102287.97;;;8.16;100.00
16016;BME280;8112;53.592;10.184;2024-01-30T21:14:30;102291.50;;;8.15;100.00
16016;BME280;8112;53.592;10.184;2024-01-30T21:19:33;102296.03;;;8.08;100.00
16016;BME280;8112;53.592;10.184;2024-01-30T21:24:35;102308.34;;;8.06;100.00
16016;BME280;8112;53.592;10.184;2024-01-30T21:29:36;102305.53;;;7.74;100.00
16016;BME280;8112;53.592;10.184;2024-01-30T21:34:41;102326.53;;;7.74;100.00
16016;BME280;8112;53.592;10.184;2024-01-30T21:39:43;102327.69;;;7.61;100.00
16016;BME280;8112;53.592;10.184;2024-01-30T21:44:45;102352.28;;;7.56;100.00
16016;BME280;8112;53.592;10.184;2024-01-30T21:49:48;102344.53;;;7.50;100.00
16016;BME280;8112;53.592;10.184;2024-01-30T21:54:50;102356.44;;;7.23;100.00
16016;BME280;8112;53.592;10.184;2024-01-30T21:59:52;102370.44;;;7.20;100.00
16016;BME280;8112;53.592;10.184;2024-01-30T22:04:55;102378.25;;;7.22;100.00
16016;BME280;8112;53.592;10.184;2024-01-30T22:09:57;102382.03;;;7.08;100.00
16016;BME280;8112;53.592;10.184;2024-01-30T22:14:59;102389.84;;;7.10;100.00
16016;BME280;8112;53.592;10.184;2024-01-30T22:20:02;102401.34;;;7.01;100.00
16016;BME280;8112;53.592;10.184;2024-01-30T22:25:05;102403.97;;;7.03;100.00
16016;BME280;8112;53.592;10.184;2024-01-30T22:30:08;102412.72;;;7.02;100.00
16016;BME280;8112;53.592;10.184;2024-01-30T22:35:12;102419.69;;;7.03;100.00
16016;BME280;8112;53.592;10.184;2024-01-30T22:40:13;102427.69;;;6.93;100.00
16016;BME280;8112;53.592;10.184;2024-01-30T22:45:15;102436.44;;;6.94;100.00
16016;BME280;8112;53.592;10.184;2024-01-30T22:50:18;102432.44;;;6.69;100.00
16016;BME280;8112;53.592;10.184;2024-01-30T22:55:20;102466.66;;;6.60;100.00
16016;BME280;8112;53.592;10.184;2024-01-30T23:00:23;102468.44;;;6.56;100.00
16016;BME280;8112;53.592;10.184;2024-01-30T23:05:27;102486.09;;;6.44;100.00
16016;BME280;8112;53.592;10.184;2024-01-30T23:10:30;102503.66;;;6.35;100.00
16016;BME280;8112;53.592;10.184;2024-01-30T23:15:32;102516.78;;;6.32;100.00
16016;BME280;8112;53.592;10.184;2024-01-30T23:20:36;102517.75;;;6.25;100.00
16016;BME280;8112;53.592;10.184;2024-01-30T23:25:39;102528.31;;;6.16;100.00
16016;BME280;8112;53.592;10.184;2024-01-30T23:30:41;102525.78;;;6.09;100.00
16016;BME280;8112;53.592;10.184;2024-01-30T23:35:44;102551.16;;;6.04;100.00
16016;BME280;8112;53.592;10.184;2024-01-30T23:40:46;102559.06;;;5.95;100.00
16016;BME280;8112;53.592;10.184;2024-01-30T23:45:48;102558.28;;;5.83;100.00
16016;BME280;8112;53.592;10.184;2024-01-30T23:50:51;102567.03;;;5.79;100.00
16016;BME280;8112;53.592;10.184;2024-01-30T23:55:53;102571.41;;;5.80;100.00
